EDDH/HAM METAR and TAF weather

Enter ICAO airport designator
Station Type Date Time Source
EDDH METAR 2020/09/19 03:20 UTC NOAA

EDDH 190320Z 36003KT 9999 BCFG NSC 06/06 Q1025 NOSIG


Station Type Date Time Source
EDDH Decoded METAR 2020/09/19 03:20 UTC NOAA

Hamburg-Fuhlsbuettel, Germany (EDDH) 53-38N 010-00E 15M
Sep 18, 2020 - 11:20 PM EDT / 2020.09.19 0320 UTC
Wind: from the N (360 degrees) at 3 MPH (3 KT):0
Visibility: greater than 7 mile(s):0
Weather: patches of fog
Temperature: 42 F (6 C)
Dew Point: 42 F (6 C)
Relative Humidity: 100%
Pressure (altimeter): 30.27 in. Hg (1025 hPa)
ob: EDDH 190320Z 36003KT 9999 BCFG NSC 06/06 Q1025 NOSIG
cycle: 3

Station Type Date Time Source
EDDH TAF 2020/09/18 18:29 UTC NOAA

TAF EDDH 181700Z 1818/1924 06003KT CAVOK
BECMG 1909/1911 09008KT
BECMG 1917/1919 06003KT

Example: see airport list